createdAt,value
2019-04-21T00:02:03.864Z,18.70
2019-04-21T00:04:46.540Z,17.23
2019-04-21T00:07:29.701Z,20.00
2019-04-21T00:10:06.397Z,17.73
2019-04-21T00:12:35.572Z,15.90
2019-04-21T00:15:05.027Z,14.63
2019-04-21T00:17:24.875Z,16.63
2019-04-21T00:20:09.031Z,15.50
2019-04-21T00:22:41.335Z,14.27
2019-04-21T00:25:20.730Z,16.53
2019-04-21T00:27:55.216Z,15.27
2019-04-21T00:30:30.336Z,14.60
2019-04-21T00:32:54.005Z,16.00
2019-04-21T00:35:21.066Z,16.77
2019-04-21T00:38:17.099Z,12.77
2019-04-21T00:40:53.882Z,13.50
2019-04-21T00:43:19.716Z,16.30
2019-04-21T00:45:52.128Z,13.50
2019-04-21T00:48:36.543Z,12.90
2019-04-21T00:51:25.161Z,13.67
2019-04-21T00:53:51.882Z,13.90
2019-04-21T00:56:16.716Z,15.73
2019-04-21T00:58:48.030Z,15.93
2019-04-21T01:01:22.327Z,13.77
2019-04-21T01:03:57.704Z,15.23
2019-04-21T01:06:28.663Z,18.03
2019-04-21T01:08:59.552Z,13.60
2019-04-21T01:11:34.192Z,14.03
2019-04-21T01:14:12.023Z,18.10
2019-04-21T01:16:45.821Z,15.60
2019-04-21T01:19:16.653Z,15.27
2019-04-21T01:21:31.063Z,15.13
2019-04-21T01:24:18.603Z,16.13
2019-04-21T01:26:51.010Z,13.77
2019-04-21T01:29:37.511Z,16.50
2019-04-21T01:32:13.477Z,15.63
2019-04-21T01:34:39.208Z,14.97
2019-04-21T01:37:03.912Z,16.87
2019-04-21T01:39:51.485Z,13.83
2019-04-21T01:42:21.424Z,13.67
2019-04-21T01:44:54.394Z,14.33
2019-04-21T01:47:23.167Z,14.93
2019-04-21T01:49:50.077Z,11.23
2019-04-21T01:55:13.826Z,10.00
2019-04-21T01:57:45.150Z,13.90
2019-04-21T02:00:13.294Z,10.10
2019-04-21T02:02:59.237Z,8.27
2019-04-21T02:05:40.856Z,12.10
2019-04-21T02:08:01.176Z,8.47
2019-04-21T02:10:44.479Z,7.70
2019-04-21T02:13:10.257Z,11.50
2019-04-21T02:15:46.462Z,10.77
2019-04-21T02:18:18.566Z,13.03
2019-04-21T02:20:41.369Z,8.40
2019-04-21T02:25:57.546Z,8.87
2019-04-21T02:28:37.885Z,8.00
2019-04-21T02:33:45.903Z,9.87
2019-04-21T02:36:33.237Z,11.37
2019-04-21T02:38:56.318Z,10.17
2019-04-21T02:41:22.792Z,10.13
2019-04-21T02:44:00.659Z,10.40
2019-04-21T02:46:31.312Z,8.87
2019-04-21T02:51:36.857Z,10.33
2019-04-21T02:54:40.640Z,10.20
2019-04-21T03:02:04.468Z,8.73
2019-04-21T03:04:56.821Z,9.97
2019-04-21T03:18:26.520Z,10.10
2019-04-21T03:23:36.345Z,14.13
2019-04-21T03:26:12.437Z,10.57
2019-04-21T03:28:37.070Z,9.70
2019-04-21T03:41:31.671Z,10.20
2019-04-21T03:44:12.344Z,13.37
2019-04-21T03:49:14.857Z,9.83
2019-04-21T03:56:59.142Z,11.03
2019-04-21T03:59:19.962Z,11.40
2019-04-21T04:02:03.537Z,11.43
2019-04-21T04:04:44.105Z,8.23
2019-04-21T04:07:44.111Z,8.77
2019-04-21T04:10:07.736Z,12.30
2019-04-21T04:12:36.528Z,10.27
2019-04-21T04:15:12.239Z,9.47
2019-04-21T04:17:40.786Z,10.70
2019-04-21T04:20:16.405Z,8.97
2019-04-21T04:25:25.233Z,10.13
2019-04-21T04:27:59.464Z,12.37
2019-04-21T04:30:23.551Z,7.23
2019-04-21T04:32:46.556Z,8.63
2019-04-21T04:35:40.484Z,13.93
2019-04-21T04:37:55.898Z,8.47
2019-04-21T04:50:49.321Z,10.33
2019-04-21T04:53:20.347Z,8.87
2019-04-21T04:58:38.923Z,14.20
2019-04-21T05:03:45.678Z,9.33
2019-04-21T05:06:53.360Z,9.03
2019-04-21T05:09:11.343Z,9.83
2019-04-21T05:11:46.799Z,8.03
2019-04-21T05:19:34.966Z,10.37
2019-04-21T05:21:45.629Z,10.70
2019-04-21T05:24:16.659Z,15.20
2019-04-21T05:26:51.598Z,13.03
2019-04-21T05:29:20.793Z,12.37
2019-04-21T05:32:11.820Z,9.03
2019-04-21T05:34:37.394Z,9.30
2019-04-21T05:37:24.692Z,9.03
2019-04-21T05:39:55.899Z,6.57
2019-04-21T05:42:30.296Z,6.80
2019-04-21T05:45:26.817Z,9.30
2019-04-21T05:48:11.686Z,8.37
2019-04-21T05:50:30.561Z,9.17
2019-04-21T05:53:00.837Z,11.90
2019-04-21T05:55:46.001Z,13.07
2019-04-21T05:58:09.306Z,9.73
2019-04-21T06:01:09.280Z,9.23
2019-04-21T06:03:30.700Z,7.77
2019-04-21T06:08:30.844Z,8.03
2019-04-21T06:11:07.308Z,5.43
2019-04-21T06:13:43.776Z,6.33
2019-04-21T06:16:07.327Z,9.57
2019-04-21T06:18:52.980Z,10.80
2019-04-21T06:21:15.903Z,9.03
2019-04-21T06:23:49.652Z,5.60
2019-04-21T06:26:50.385Z,8.20
2019-04-21T06:28:56.885Z,12.33
2019-04-21T06:32:09.090Z,6.93
2019-04-21T06:34:11.378Z,9.30
2019-04-21T06:36:42.644Z,7.13
2019-04-21T06:39:15.637Z,8.37
2019-04-21T06:41:49.044Z,7.50
2019-04-21T06:44:28.944Z,7.13
2019-04-21T06:46:54.290Z,5.00
2019-04-21T06:49:26.213Z,8.70
2019-04-21T06:52:19.397Z,5.17
2019-04-21T06:54:45.431Z,6.50
2019-04-21T06:57:15.207Z,7.67
2019-04-21T06:59:40.249Z,6.67
2019-04-21T07:02:30.654Z,8.50
2019-04-21T07:04:51.837Z,6.07
2019-04-21T07:07:21.722Z,11.57
2019-04-21T07:09:57.011Z,7.93
2019-04-21T07:12:26.176Z,4.60
2019-04-21T07:14:59.278Z,8.33
2019-04-21T07:17:45.694Z,5.93
2019-04-21T07:20:06.923Z,8.50
2019-04-21T07:22:36.853Z,11.00
2019-04-21T07:25:10.545Z,8.00
2019-04-21T07:27:58.096Z,6.83
2019-04-21T07:30:21.111Z,7.50
2019-04-21T07:35:20.812Z,6.23
2019-04-21T07:37:53.448Z,4.93
2019-04-21T07:40:22.321Z,4.00
2019-04-21T07:42:54.169Z,4.97
2019-04-21T07:45:27.793Z,6.83
2019-04-21T07:48:16.215Z,4.27
2019-04-21T07:51:07.546Z,4.50
2019-04-21T07:53:49.878Z,6.40
2019-04-21T07:56:00.314Z,5.47
2019-04-21T07:58:53.570Z,4.83
2019-04-21T08:03:57.049Z,4.00
2019-04-21T08:06:26.816Z,4.27
2019-04-21T08:08:53.486Z,4.57
2019-04-21T08:11:28.301Z,5.07
2019-04-21T08:13:57.768Z,7.27
2019-04-21T08:16:30.230Z,8.83
2019-04-21T08:19:07.175Z,4.33
2019-04-21T08:21:47.772Z,6.67
2019-04-21T08:24:12.905Z,6.23
2019-04-21T08:26:46.936Z,5.97
2019-04-21T08:29:25.631Z,4.97
2019-04-21T08:31:56.075Z,4.07
2019-04-21T08:34:28.392Z,6.73
2019-04-21T08:36:52.769Z,6.50
2019-04-21T08:39:28.870Z,4.97
2019-04-21T08:42:03.342Z,6.20
2019-04-21T08:47:12.859Z,4.83
2019-04-21T08:49:42.825Z,5.27
2019-04-21T08:54:47.074Z,5.67
2019-04-21T08:57:32.179Z,6.77
2019-04-21T09:00:05.380Z,6.27
2019-04-21T09:02:40.452Z,5.87
2019-04-21T09:05:06.016Z,5.87
2019-04-21T09:07:44.676Z,10.43
2019-04-21T09:10:09.275Z,7.07
2019-04-21T09:12:48.033Z,3.80
2019-04-21T09:15:18.942Z,4.80
2019-04-21T09:17:44.799Z,9.60
2019-04-21T09:20:26.567Z,5.40
2019-04-21T09:23:00.807Z,4.07
2019-04-21T09:25:40.594Z,4.03
2019-04-21T09:28:05.332Z,3.90
2019-04-21T09:30:20.208Z,4.70
2019-04-21T09:32:53.461Z,5.83
2019-04-21T09:35:24.090Z,3.50
2019-04-21T09:38:03.943Z,4.80
2019-04-21T09:40:35.989Z,4.13
2019-04-21T09:43:04.741Z,5.47
2019-04-21T09:45:32.977Z,3.03
2019-04-21T09:48:11.525Z,4.87
2019-04-21T09:50:38.375Z,6.33
2019-04-21T09:53:18.138Z,5.13
2019-04-21T09:55:48.761Z,3.23
2019-04-21T09:58:24.171Z,7.33
2019-04-21T10:01:01.136Z,4.93
2019-04-21T10:03:21.249Z,3.80
2019-04-21T10:05:54.184Z,4.63
2019-04-21T10:08:25.282Z,5.00
2019-04-21T10:10:56.970Z,3.90
2019-04-21T10:13:29.619Z,6.30
2019-04-21T10:16:20.239Z,7.90
2019-04-21T10:18:50.683Z,3.67
2019-04-21T10:21:22.533Z,3.87
2019-04-21T10:23:54.279Z,3.40
2019-04-21T10:26:26.387Z,3.57
2019-04-21T10:29:05.562Z,4.20
2019-04-21T10:31:32.516Z,5.30
2019-04-21T10:34:03.231Z,3.57
2019-04-21T10:36:35.031Z,4.53
2019-04-21T10:39:07.836Z,7.00
2019-04-21T10:41:39.299Z,4.57
2019-04-21T10:46:48.478Z,4.43
2019-04-21T10:49:19.022Z,4.70
2019-04-21T10:51:50.752Z,4.00
2019-04-21T10:54:21.888Z,3.80
2019-04-21T10:56:54.694Z,3.33
2019-04-21T10:59:25.223Z,9.20
2019-04-21T11:01:56.851Z,3.73
2019-04-21T11:04:33.653Z,7.80
2019-04-21T11:07:06.698Z,4.83
2019-04-21T11:09:36.104Z,3.67
2019-04-21T11:12:08.152Z,4.00
2019-04-21T11:14:38.977Z,2.80
2019-04-21T11:17:10.197Z,5.90
2019-04-21T11:19:41.132Z,5.07
2019-04-21T11:22:12.662Z,3.50
2019-04-21T11:24:43.396Z,3.20
2019-04-21T11:27:14.974Z,3.20
2019-04-21T11:29:45.605Z,5.50
2019-04-21T11:32:16.927Z,3.40
2019-04-21T11:34:47.473Z,3.20
2019-04-21T11:37:19.953Z,3.83
2019-04-21T11:39:59.373Z,3.80
2019-04-21T11:42:25.705Z,3.13
2019-04-21T11:44:57.550Z,2.50
2019-04-21T11:47:32.539Z,3.27
2019-04-21T11:50:05.334Z,3.53
2019-04-21T11:52:36.911Z,3.23
2019-04-21T11:55:08.993Z,2.43
2019-04-21T11:57:44.610Z,3.23
2019-04-21T12:00:13.623Z,3.33
2019-04-21T12:02:45.617Z,4.27
2019-04-21T12:05:17.297Z,3.40
2019-04-21T12:07:49.263Z,3.97
2019-04-21T12:10:20.026Z,4.83
2019-04-21T12:12:51.006Z,6.93
2019-04-21T12:15:22.930Z,3.83
2019-04-21T12:17:56.340Z,6.90
2019-04-21T12:20:33.429Z,2.40
2019-04-21T12:23:04.887Z,3.30
2019-04-21T12:25:47.248Z,4.33
2019-04-21T12:28:19.714Z,4.10
2019-04-21T12:30:51.954Z,3.10
2019-04-21T12:33:32.062Z,5.57
2019-04-21T12:36:04.004Z,3.60
2019-04-21T12:38:46.577Z,5.47
2019-04-21T12:41:08.690Z,11.87
2019-04-21T12:43:40.541Z,6.87
2019-04-21T12:46:11.954Z,5.20
2019-04-21T12:48:44.117Z,4.07
2019-04-21T12:51:15.577Z,4.00
2019-04-21T12:53:47.761Z,8.30
2019-04-21T12:56:19.735Z,4.70
2019-04-21T12:58:51.311Z,5.30
2019-04-21T13:01:23.082Z,6.73
2019-04-21T13:03:53.878Z,3.73
2019-04-21T13:06:25.523Z,4.13
2019-04-21T13:09:04.653Z,5.43
2019-04-21T13:11:28.870Z,3.63
2019-04-21T13:13:59.997Z,3.07
2019-04-21T13:16:31.664Z,2.40
2019-04-21T13:19:03.010Z,3.80
2019-04-21T13:21:36.045Z,3.00
2019-04-21T13:24:07.202Z,3.07
2019-04-21T13:26:45.497Z,2.80
2019-04-21T13:29:10.259Z,5.43
2019-04-21T13:31:42.421Z,3.63
2019-04-21T13:34:14.094Z,3.60
2019-04-21T13:36:45.548Z,3.77
2019-04-21T13:39:52.305Z,2.93
2019-04-21T13:42:11.053Z,3.47
2019-04-21T13:44:33.110Z,4.57
2019-04-21T13:47:05.138Z,3.70
2019-04-21T13:49:37.036Z,4.40
2019-04-21T13:52:11.066Z,2.80
2019-04-21T13:54:43.196Z,5.97
2019-04-21T13:57:16.644Z,4.07
2019-04-21T13:59:49.409Z,5.63
2019-04-21T14:02:20.731Z,2.53
2019-04-21T14:04:51.846Z,4.63
2019-04-21T14:07:24.072Z,3.03
2019-04-21T14:10:02.554Z,2.97
2019-04-21T14:12:31.655Z,5.20
2019-04-21T14:15:02.334Z,3.97
2019-04-21T14:17:35.037Z,3.30
2019-04-21T14:20:09.542Z,3.60
2019-04-21T14:22:40.113Z,3.00
2019-04-21T14:25:15.500Z,3.83
2019-04-21T14:27:49.921Z,2.40
2019-04-21T14:30:20.595Z,4.37
2019-04-21T14:32:52.001Z,2.10
2019-04-21T14:35:25.024Z,2.80
2019-04-21T14:37:56.576Z,4.00
2019-04-21T14:40:29.512Z,2.30
2019-04-21T14:43:00.355Z,2.67
2019-04-21T14:45:36.811Z,2.47
2019-04-21T14:48:25.470Z,3.37
2019-04-21T14:51:06.778Z,3.10
2019-04-21T14:53:41.535Z,4.73
2019-04-21T14:56:13.259Z,3.30
2019-04-21T14:58:45.300Z,3.07
2019-04-21T15:01:16.200Z,3.90
2019-04-21T15:03:47.884Z,2.20
2019-04-21T15:06:19.040Z,3.60
2019-04-21T15:08:51.097Z,3.60
2019-04-21T15:11:22.183Z,2.60
2019-04-21T15:14:17.847Z,4.40
2019-04-21T15:16:49.068Z,3.33
2019-04-21T15:19:20.421Z,2.20
2019-04-21T15:21:52.336Z,2.57
2019-04-21T15:24:24.323Z,2.23
2019-04-21T15:26:55.035Z,2.13
2019-04-21T15:29:26.790Z,1.60
2019-04-21T15:31:58.708Z,3.97
2019-04-21T15:34:31.993Z,1.70
2019-04-21T15:37:04.108Z,1.93
2019-04-21T15:39:34.761Z,1.63
2019-04-21T15:42:06.243Z,2.13
2019-04-21T15:44:36.854Z,4.07
2019-04-21T15:47:08.261Z,1.83
2019-04-21T15:50:00.818Z,1.73
2019-04-21T15:52:27.983Z,2.17
2019-04-21T15:55:00.863Z,4.33
2019-04-21T15:57:38.760Z,2.57
2019-04-21T16:00:30.959Z,7.90
2019-04-21T16:03:02.478Z,3.17
2019-04-21T16:05:33.139Z,2.30
2019-04-21T16:08:05.885Z,1.90
2019-04-21T16:10:43.725Z,2.17
2019-04-21T16:13:09.810Z,3.50
2019-04-21T16:15:40.917Z,1.97
2019-04-21T16:18:12.188Z,1.70
2019-04-21T16:20:43.932Z,3.23
2019-04-21T16:23:15.400Z,2.33
2019-04-21T16:25:46.634Z,3.50
2019-04-21T16:28:17.408Z,3.83
2019-04-21T16:30:48.802Z,3.23
2019-04-21T16:33:20.985Z,2.73
2019-04-21T16:35:51.777Z,3.00
2019-04-21T16:38:23.689Z,5.40
2019-04-21T16:40:59.983Z,5.60
2019-04-21T16:43:27.091Z,3.43
2019-04-21T16:45:58.968Z,2.77
2019-04-21T16:48:30.883Z,4.10
2019-04-21T16:51:01.730Z,3.33
2019-04-21T16:53:37.739Z,4.00
2019-04-21T16:56:26.799Z,3.53
2019-04-21T16:58:59.134Z,3.33
2019-04-21T17:01:34.265Z,3.83
2019-04-21T17:04:06.532Z,3.10
2019-04-21T17:06:38.444Z,3.03
2019-04-21T17:09:10.511Z,7.50
2019-04-21T17:11:44.671Z,5.00
2019-04-21T17:14:32.896Z,5.53
2019-04-21T17:17:16.302Z,6.57
2019-04-21T17:19:27.324Z,5.33
2019-04-21T17:21:52.335Z,8.10
2019-04-21T17:24:24.366Z,3.80
2019-04-21T17:26:55.577Z,7.67
2019-04-21T17:29:30.434Z,6.77
2019-04-21T17:32:06.029Z,5.60
2019-04-21T17:34:37.370Z,5.70
2019-04-21T17:37:08.821Z,6.77
2019-04-21T17:39:40.780Z,3.87
2019-04-21T17:42:23.325Z,6.20
2019-04-21T17:44:43.673Z,5.90
2019-04-21T17:47:23.885Z,4.90
2019-04-21T17:49:50.836Z,4.43
2019-04-21T17:52:23.874Z,6.87
2019-04-21T17:55:11.458Z,6.10
2019-04-21T17:57:57.054Z,6.07
2019-04-21T18:00:57.465Z,4.30
2019-04-21T18:03:07.833Z,6.57
2019-04-21T18:05:39.403Z,8.40
2019-04-21T18:08:16.245Z,9.63
2019-04-21T18:10:42.037Z,6.60
2019-04-21T18:13:05.881Z,7.00
2019-04-21T18:15:46.986Z,6.33
2019-04-21T18:18:05.198Z,5.93
2019-04-21T18:20:41.851Z,5.67
2019-04-21T18:23:39.781Z,7.27
2019-04-21T18:26:08.203Z,6.57
2019-04-21T18:28:38.779Z,7.83
2019-04-21T18:31:14.665Z,5.53
2019-04-21T18:33:59.002Z,7.47
2019-04-21T18:36:39.472Z,5.50
2019-04-21T18:39:27.557Z,6.53
2019-04-21T18:42:04.893Z,6.50
2019-04-21T18:44:48.541Z,8.67
2019-04-21T18:47:20.089Z,6.33
2019-04-21T18:49:43.704Z,9.87
2019-04-21T18:52:32.602Z,7.27
2019-04-21T18:55:05.364Z,9.57
2019-04-21T18:57:36.561Z,8.27
2019-04-21T18:59:57.525Z,7.87
2019-04-21T19:02:38.400Z,9.57
2019-04-21T19:05:07.866Z,8.17
2019-04-21T19:07:59.830Z,7.27
2019-04-21T19:15:30.045Z,9.03
2019-04-21T19:20:38.725Z,5.70
2019-04-21T19:23:11.522Z,6.17
2019-04-21T19:25:49.691Z,8.40
2019-04-21T19:28:16.848Z,6.83
2019-04-21T19:31:05.159Z,14.23
2019-04-21T19:33:22.396Z,9.07
2019-04-21T19:35:39.249Z,9.73
2019-04-21T19:38:14.091Z,8.33
2019-04-21T19:40:59.175Z,6.53
2019-04-21T19:43:36.972Z,6.97
2019-04-21T19:46:12.839Z,10.30
2019-04-21T19:48:44.830Z,6.87
2019-04-21T19:51:10.450Z,8.00
2019-04-21T19:53:41.798Z,9.27
2019-04-21T19:56:03.757Z,7.87
2019-04-21T19:58:39.037Z,9.20
2019-04-21T20:01:11.757Z,8.07
2019-04-21T20:03:47.686Z,8.10
2019-04-21T20:06:33.073Z,9.20
2019-04-21T20:09:10.556Z,7.70
2019-04-21T20:11:37.187Z,13.27
2019-04-21T20:14:37.883Z,9.47
2019-04-21T20:16:48.108Z,9.97
2019-04-21T20:19:06.890Z,9.30
2019-04-21T20:21:35.133Z,8.30
2019-04-21T20:24:11.147Z,9.73
2019-04-21T20:26:42.437Z,7.97
2019-04-21T20:29:32.758Z,6.60
2019-04-21T20:32:10.547Z,7.53
2019-04-21T20:34:41.015Z,6.60
2019-04-21T20:37:07.775Z,6.70
2019-04-21T20:39:29.414Z,7.37
2019-04-21T20:42:12.340Z,6.63
2019-04-21T20:44:48.383Z,5.90
2019-04-21T20:47:11.266Z,7.43
2019-04-21T20:49:46.171Z,9.07
2019-04-21T20:52:30.701Z,7.20
2019-04-21T20:54:53.924Z,8.03
2019-04-21T20:57:29.997Z,7.00
2019-04-21T21:00:09.070Z,7.10
2019-04-21T21:02:41.691Z,7.57
2019-04-21T21:05:00.336Z,6.40
2019-04-21T21:07:49.210Z,8.27
2019-04-21T21:10:16.666Z,8.17
2019-04-21T21:12:58.982Z,6.10
2019-04-21T21:15:19.728Z,8.83
2019-04-21T21:18:06.206Z,6.90
2019-04-21T21:20:30.782Z,7.13
2019-04-21T21:23:04.002Z,7.87
2019-04-21T21:25:44.671Z,10.30
2019-04-21T21:28:08.907Z,10.70
2019-04-21T21:30:43.124Z,9.70
2019-04-21T21:33:46.887Z,9.37
2019-04-21T21:35:50.120Z,9.77
2019-04-21T21:38:30.883Z,10.83
2019-04-21T21:40:54.627Z,9.83
2019-04-21T21:43:21.140Z,10.20
2019-04-21T21:45:55.615Z,13.03
2019-04-21T21:48:37.879Z,9.90
2019-04-21T21:51:08.221Z,11.37
2019-04-21T21:53:30.729Z,8.43
2019-04-21T21:56:00.670Z,8.07
2019-04-21T21:58:38.161Z,9.70
2019-04-21T22:01:09.812Z,6.83
2019-04-21T22:03:44.781Z,7.53
2019-04-21T22:06:16.366Z,9.73
2019-04-21T22:08:44.327Z,9.73
2019-04-21T22:11:15.857Z,7.20
2019-04-21T22:13:54.795Z,11.97
2019-04-21T22:16:21.239Z,8.67
2019-04-21T22:19:14.329Z,11.80
2019-04-21T22:21:42.622Z,8.27
2019-04-21T22:24:09.459Z,10.37
2019-04-21T22:26:33.218Z,14.27
2019-04-21T22:29:05.701Z,9.73
2019-04-21T22:31:38.990Z,9.83
2019-04-21T22:34:12.234Z,10.27
2019-04-21T22:36:48.783Z,13.00
2019-04-21T22:39:30.680Z,9.23
2019-04-21T22:41:48.597Z,13.43
2019-04-21T22:44:19.372Z,10.00
2019-04-21T22:47:04.208Z,12.03
2019-04-21T22:49:23.845Z,9.93
2019-04-21T22:51:55.709Z,10.83
2019-04-21T22:54:32.750Z,8.87
2019-04-21T22:57:06.468Z,9.03
2019-04-21T22:59:32.442Z,11.13
2019-04-21T23:02:06.438Z,9.53
2019-04-21T23:04:41.762Z,10.30
2019-04-21T23:07:13.369Z,14.37
2019-04-21T23:09:40.445Z,9.27
2019-04-21T23:12:13.144Z,10.23
2019-04-21T23:14:53.103Z,12.07
2019-04-21T23:17:35.394Z,11.43
2019-04-21T23:20:08.920Z,11.63
2019-04-21T23:22:40.131Z,12.17
2019-04-21T23:25:13.656Z,13.47
2019-04-21T23:27:52.888Z,11.00
2019-04-21T23:30:30.426Z,12.03
2019-04-21T23:32:42.235Z,9.87
2019-04-21T23:35:16.943Z,10.40
2019-04-21T23:37:44.621Z,10.63
2019-04-21T23:40:14.760Z,8.53
2019-04-21T23:42:44.921Z,9.87
2019-04-21T23:45:17.752Z,8.70
2019-04-21T23:47:57.819Z,9.37
2019-04-21T23:50:29.890Z,10.30
2019-04-21T23:52:53.047Z,8.40
2019-04-21T23:55:25.248Z,7.87
2019-04-21T23:58:09.458Z,8.00
